Главная страница
METAR-TAF:

METAR-TAF

Аэропорты :

Керманшах, Иран

широта: 34-16N, долгота: 047-07E, высота над уровнем моря: 1320 м

Текущие метеонаблюдения

Эта сводка был подготовлена 13 минут назад, в 03:30 UTC
Ветер 10 Узел от северо-западный
Температура 9°C
Влажность 87%
Давление 1009 hPa
Видимость 10 км и более
небольшая облачность на высоте 2000 фута
Отдельные облака на высоте 3000 фута, Кучево-дождевые.
Сплошная облачность на высоте 7000 фута

METAR: OICC 100330Z 31010KT 9999 FEW020 SCT030CB OVC070 09/07 Q1009 A2981

Время: 08:13 (03:43 UTC)


TAF: отсутствует

Метеонаблюдения и прогнозы для более 4000 аэропортов (сводки METAR и TAF).

Имеющиеся станции представлены на карте желтыми и красными точками.

Чтобы увидеть название станции, наведите на нее мышь.

Затем щелкните, чтобы увидеть метеонаблюдения и метеопрогнозы.

Управление картой: чтобы увеличить масштаб, щелкните зеленые кнопки с черным крестиком; чтобы уменьшить масштаб, щелкните зеленую кнопку с тире; для просмотра соседних карт щелкайте зеленые стрелки.


METAR-TAF: